St. Paul, Alberta

Past 24 Hour Conditions

This table is a summary of hourly weather conditions for the past 24 hours. This summary includes the following parameters: temperature, humidity, dew point, wind speed and direction, air pressure, visibility and/or wind chill and humidex.
Date / Time
(MDT)
Conditions Temp (°F) Humidity (%) Dew Point (°F) Wind (mph) Pressure (inches) Visibility (miles)
21 August 2014
13:00 N/A 56 56 40 NE 4 N/A N/A
12:00 N/A 55 58 40 NE 6 N/A N/A
11:00 N/A 53 65 42 NNE 6 N/A N/A
10:00 N/A 51 75 43 N 11 N/A N/A
9:00 N/A 50 81 44 N 11 N/A N/A
8:00 N/A 48 87 44 N 12 N/A N/A
7:00 N/A 47   93 45 NNW 7 N/A N/A
6:00 N/A 48 93 46 NNW 6 N/A N/A
5:00 N/A 48 94 46 NNW 4 N/A N/A
4:00 N/A 48 93 46 N 6 N/A N/A
3:00 N/A 48 95 46 N 8 N/A N/A
2:00 N/A 49 93 47 NNW 8 N/A N/A
1:00 N/A 48 93 46 NNW 7 N/A N/A
00:00 N/A 49 92 46 NNW 5 N/A N/A
20 August 2014
23:00 N/A 49 94 47 NNW 5 N/A N/A
22:00 N/A 52 87 48 NNW 6 N/A N/A
21:00 N/A 55 76 48 NW 11 N/A N/A
20:00 N/A 59 72 50 WNW 10 N/A N/A
19:00 N/A 63 61 49 WNW 7 N/A N/A
18:00 N/A 65   56 49 NW 9 N/A N/A
17:00 N/A 65   52 47 W 7 N/A N/A
16:00 N/A 64 59 49 WNW 9 N/A N/A
15:00 N/A 65   60 51 NNW 9 N/A N/A
14:00 N/A 60 73 51 NW 11 N/A N/A
13:00 N/A 59 75 51 NW 12 N/A N/A
N/A
Not available
 ↑ 
Highest temperature
 ↓ 
Lowest temperature

If you require additional historical weather information, please visit Climate Data Online.